createdAt,value
2023-02-19T00:01:22.282Z,100421.59
2023-02-19T00:03:52.258Z,100431.28
2023-02-19T00:06:20.582Z,100436.63
2023-02-19T00:08:47.901Z,100436.63
2023-02-19T00:11:17.302Z,100443.09
2023-02-19T00:13:46.851Z,100435.19
2023-02-19T00:16:20.080Z,100444.50
2023-02-19T00:18:47.076Z,100458.25
2023-02-19T00:21:14.762Z,100451.56
2023-02-19T00:23:41.377Z,100445.03
2023-02-19T00:26:18.245Z,100448.59
2023-02-19T00:28:46.374Z,100451.69
2023-02-19T00:31:15.900Z,100447.44
2023-02-19T00:33:43.391Z,100457.59
2023-02-19T00:36:10.006Z,100454.72
2023-02-19T00:38:38.523Z,100462.47
2023-02-19T00:41:19.216Z,100464.31
2023-02-19T00:43:50.729Z,100457.41
2023-02-19T00:46:28.962Z,100471.25
2023-02-19T00:48:56.588Z,100465.03
2023-02-19T00:51:27.156Z,100461.47
2023-02-19T00:53:54.033Z,100462.59
2023-02-19T00:56:21.593Z,100457.28
2023-02-19T00:58:48.457Z,100458.25
2023-02-19T01:01:15.766Z,100467.31
2023-02-19T01:03:42.996Z,100468.28
2023-02-19T01:06:10.850Z,100472.91
2023-02-19T01:08:38.099Z,100474.81
2023-02-19T01:11:05.848Z,100472.22
2023-02-19T01:13:33.153Z,100466.56
2023-02-19T01:16:13.284Z,100460.16
2023-02-19T01:18:40.153Z,100462.88
2023-02-19T01:21:09.274Z,100464.81
2023-02-19T01:23:36.570Z,100466.00
2023-02-19T01:26:08.106Z,100473.50
2023-02-19T01:28:35.815Z,100469.31
2023-02-19T01:31:04.593Z,100473.03
2023-02-19T01:33:31.441Z,100470.75
2023-02-19T01:35:58.222Z,100469.28
2023-02-19T01:38:24.894Z,100468.53
2023-02-19T01:41:09.646Z,100473.09
2023-02-19T01:43:56.733Z,100458.44
2023-02-19T01:46:43.134Z,100461.16
2023-02-19T01:49:20.752Z,100463.16
2023-02-19T01:52:16.524Z,100463.03
2023-02-19T01:54:45.757Z,100464.94
2023-02-19T01:57:18.536Z,100458.59
2023-02-19T01:59:47.815Z,100460.47
2023-02-19T02:02:14.605Z,100466.69
2023-02-19T02:04:41.520Z,100469.22
2023-02-19T02:07:28.429Z,100476.47
2023-02-19T02:10:14.798Z,100478.19
2023-02-19T02:12:41.396Z,100477.88
2023-02-19T02:15:08.446Z,100478.59
2023-02-19T02:17:50.261Z,100464.16
2023-02-19T02:20:37.248Z,100469.72
2023-02-19T02:23:14.393Z,100477.44
2023-02-19T02:26:06.178Z,100478.94
2023-02-19T02:28:51.002Z,100475.66
2023-02-19T02:31:21.401Z,100473.66
2023-02-19T02:33:57.941Z,100469.97
2023-02-19T02:36:32.700Z,100468.75
2023-02-19T02:39:03.534Z,100471.44
2023-02-19T02:41:30.096Z,100463.41
2023-02-19T02:43:56.671Z,100464.34
2023-02-19T02:46:31.360Z,100474.00
2023-02-19T02:49:00.529Z,100474.75
2023-02-19T02:51:35.733Z,100472.63
2023-02-19T02:54:26.052Z,100481.03
2023-02-19T02:56:54.858Z,100471.00
2023-02-19T02:59:28.479Z,100477.69
2023-02-19T03:02:23.276Z,100482.47
2023-02-19T03:05:25.316Z,100485.06
2023-02-19T03:08:07.585Z,100482.22
2023-02-19T03:10:48.588Z,100488.31
2023-02-19T03:13:56.589Z,100482.91
2023-02-19T03:16:47.074Z,100491.81
2023-02-19T03:19:20.531Z,100489.97
2023-02-19T03:22:00.734Z,100489.66
2023-02-19T03:24:50.463Z,100481.25
2023-02-19T03:27:20.589Z,100476.47
2023-02-19T03:29:50.212Z,100481.47
2023-02-19T03:32:32.606Z,100479.50
2023-02-19T03:35:13.648Z,100486.47
2023-02-19T03:38:32.859Z,100488.81
2023-02-19T03:41:17.927Z,100498.31
2023-02-19T03:43:56.398Z,100503.56
2023-02-19T03:46:53.182Z,100508.84
2023-02-19T03:49:41.956Z,100529.34
2023-02-19T03:52:23.891Z,100538.34
2023-02-19T03:55:07.248Z,100519.44
2023-02-19T03:57:36.796Z,100535.84
2023-02-19T04:00:16.412Z,100539.25
2023-02-19T04:03:04.363Z,100534.38
2023-02-19T04:05:35.825Z,100535.00
2023-02-19T04:08:15.922Z,100530.94
2023-02-19T04:10:46.005Z,100524.31
2023-02-19T04:13:21.609Z,100518.28
2023-02-19T04:15:51.193Z,100517.84
2023-02-19T04:18:26.491Z,100530.72
2023-02-19T04:20:53.653Z,100525.81
2023-02-19T04:23:24.850Z,100533.34
2023-02-19T04:25:56.908Z,100533.94
2023-02-19T04:28:23.692Z,100539.06
2023-02-19T04:30:50.330Z,100530.44
2023-02-19T04:33:16.927Z,100526.38
2023-02-19T04:35:43.493Z,100528.00
2023-02-19T04:38:10.185Z,100529.59
2023-02-19T04:40:36.804Z,100528.50
2023-02-19T04:43:03.440Z,100532.00
2023-02-19T04:45:34.856Z,100524.34
2023-02-19T04:48:01.393Z,100515.03
2023-02-19T04:50:28.095Z,100515.91
2023-02-19T04:52:54.649Z,100515.84
2023-02-19T04:55:21.606Z,100525.56
2023-02-19T04:57:48.232Z,100524.28
2023-02-19T05:00:15.110Z,100519.59
2023-02-19T05:02:41.710Z,100521.94
2023-02-19T05:05:08.598Z,100510.19
2023-02-19T05:07:35.259Z,100501.09
2023-02-19T05:10:01.924Z,100501.09
2023-02-19T05:12:30.513Z,100506.34
2023-02-19T05:14:57.395Z,100502.78
2023-02-19T05:17:24.015Z,100501.03
2023-02-19T05:19:50.632Z,100501.91
2023-02-19T05:22:17.338Z,100500.28
2023-02-19T05:24:43.952Z,100499.19
2023-02-19T05:27:10.481Z,100501.25
2023-02-19T05:29:37.045Z,100502.09
2023-02-19T05:32:04.826Z,100500.41
2023-02-19T05:34:31.546Z,100495.41
2023-02-19T05:36:58.197Z,100486.75
2023-02-19T05:39:24.826Z,100487.69
2023-02-19T05:41:51.387Z,100487.03
2023-02-19T05:44:18.008Z,100487.09
2023-02-19T05:46:45.764Z,100481.81
2023-02-19T05:49:12.397Z,100481.06
2023-02-19T05:51:39.044Z,100486.56
2023-02-19T05:54:05.988Z,100489.56
2023-02-19T05:56:41.464Z,100493.88
2023-02-19T05:59:20.334Z,100495.69
2023-02-19T06:01:48.139Z,100496.56
2023-02-19T06:04:15.796Z,100507.28
2023-02-19T06:06:43.038Z,100509.31
2023-02-19T06:09:09.825Z,100511.13
2023-02-19T06:11:36.942Z,100506.72
2023-02-19T06:14:03.765Z,100500.38
2023-02-19T06:16:32.260Z,100499.56
2023-02-19T06:18:58.932Z,100507.38
2023-02-19T06:21:25.770Z,100499.13
2023-02-19T06:23:52.419Z,100509.13
2023-02-19T06:26:22.917Z,100504.38
2023-02-19T06:28:50.825Z,100499.59
2023-02-19T06:31:19.677Z,100495.66
2023-02-19T06:33:46.827Z,100494.44
2023-02-19T06:36:18.827Z,100493.06
2023-02-19T06:38:45.650Z,100491.06
2023-02-19T06:41:16.895Z,100493.31
2023-02-19T06:43:43.595Z,100497.56
2023-02-19T06:46:12.083Z,100488.78
2023-02-19T06:48:40.567Z,100475.66
2023-02-19T06:51:07.380Z,100479.34
2023-02-19T06:53:33.930Z,100473.69
2023-02-19T06:56:06.549Z,100470.66
2023-02-19T06:58:34.125Z,100454.41
2023-02-19T07:01:00.865Z,100454.34
2023-02-19T07:03:27.548Z,100453.19
2023-02-19T07:05:54.132Z,100453.28
2023-02-19T07:08:20.868Z,100457.19
2023-02-19T07:10:56.566Z,100452.66
2023-02-19T07:13:24.265Z,100453.44
2023-02-19T07:15:52.174Z,100447.75
2023-02-19T07:18:19.039Z,100444.97
2023-02-19T07:20:45.683Z,100448.47
2023-02-19T07:23:12.244Z,100429.41
2023-02-19T07:25:39.344Z,100423.44
2023-02-19T07:28:06.692Z,100417.56
2023-02-19T07:30:33.680Z,100417.22
2023-02-19T07:33:00.370Z,100421.03
2023-02-19T07:35:30.832Z,100423.28
2023-02-19T07:37:57.813Z,100417.91
2023-02-19T07:40:24.418Z,100418.06
2023-02-19T07:42:51.103Z,100408.97
2023-02-19T07:45:17.919Z,100406.50
2023-02-19T07:47:44.495Z,100413.75
2023-02-19T07:50:13.875Z,100405.72
2023-02-19T07:52:40.555Z,100397.75
2023-02-19T07:55:07.234Z,100402.28
2023-02-19T07:57:33.825Z,100401.47
2023-02-19T08:00:00.634Z,100403.78
2023-02-19T08:02:45.835Z,100410.78
2023-02-19T08:05:13.545Z,100415.91
2023-02-19T08:07:40.517Z,100427.56
2023-02-19T08:10:26.101Z,100422.00
2023-02-19T08:13:18.507Z,100422.94
2023-02-19T08:16:16.930Z,100425.13
2023-02-19T08:18:48.160Z,100427.09
2023-02-19T08:21:18.263Z,100432.84
2023-02-19T08:23:46.316Z,100431.44
2023-02-19T08:26:12.956Z,100430.22
2023-02-19T08:28:39.723Z,100434.72
2023-02-19T08:31:08.370Z,100443.31
2023-02-19T08:33:35.639Z,100450.59
2023-02-19T08:36:04.937Z,100448.22
2023-02-19T08:38:34.051Z,100449.91
2023-02-19T08:41:00.659Z,100432.25
2023-02-19T08:43:27.357Z,100403.00
2023-02-19T08:45:55.013Z,100420.56
2023-02-19T08:48:22.279Z,100428.63
2023-02-19T08:51:00.593Z,100407.03
2023-02-19T08:53:27.254Z,100398.03
2023-02-19T08:55:53.856Z,100411.56
2023-02-19T08:58:20.697Z,100412.25
2023-02-19T09:00:47.671Z,100417.72
2023-02-19T09:03:14.313Z,100419.69
2023-02-19T09:05:41.530Z,100421.06
2023-02-19T09:08:08.846Z,100418.03
2023-02-19T09:10:35.429Z,100427.16
2023-02-19T09:13:02.736Z,100425.09
2023-02-19T09:15:29.894Z,100417.97
2023-02-19T09:17:56.592Z,100417.84
2023-02-19T09:20:23.360Z,100406.88
2023-02-19T09:22:50.280Z,100407.56
2023-02-19T09:25:16.980Z,100402.19
2023-02-19T09:27:43.757Z,100399.91
2023-02-19T09:30:10.754Z,100400.53
2023-02-19T09:32:37.306Z,100402.44
2023-02-19T09:35:04.028Z,100400.53
2023-02-19T09:37:32.066Z,100404.06
2023-02-19T09:40:00.330Z,100402.00
2023-02-19T09:42:32.884Z,100403.28
2023-02-19T09:45:01.888Z,100418.06
2023-02-19T09:47:31.568Z,100405.16
2023-02-19T09:50:07.038Z,100412.69
2023-02-19T09:52:36.753Z,100433.38
2023-02-19T09:55:25.910Z,100432.47
2023-02-19T09:57:53.360Z,100431.63
2023-02-19T10:00:23.859Z,100429.00
2023-02-19T10:03:16.854Z,100424.44
2023-02-19T10:05:43.778Z,100424.91
2023-02-19T10:08:18.363Z,100423.56
2023-02-19T10:10:45.283Z,100409.97
2023-02-19T10:13:20.966Z,100411.06
2023-02-19T10:15:54.019Z,100413.03
2023-02-19T10:18:24.344Z,100399.81
2023-02-19T10:20:53.437Z,100410.22
2023-02-19T10:23:20.605Z,100401.16
2023-02-19T10:25:54.419Z,100392.31
2023-02-19T10:28:25.981Z,100371.81
2023-02-19T10:31:01.149Z,100367.34
2023-02-19T10:33:28.472Z,100345.22
2023-02-19T10:36:00.983Z,100337.81
2023-02-19T10:38:28.357Z,100328.22
2023-02-19T10:41:12.930Z,100328.53
2023-02-19T10:43:43.873Z,100323.44
2023-02-19T10:46:26.490Z,100312.97
2023-02-19T10:49:00.006Z,100299.91
2023-02-19T10:51:36.364Z,100282.88
2023-02-19T10:54:07.196Z,100272.75
2023-02-19T10:56:34.109Z,100253.63
2023-02-19T10:59:19.160Z,100253.84
2023-02-19T11:02:03.481Z,100242.94
2023-02-19T11:04:35.164Z,100243.50
2023-02-19T11:07:15.869Z,100259.53
2023-02-19T11:09:45.570Z,100255.53
2023-02-19T11:12:14.300Z,100246.78
2023-02-19T11:14:45.281Z,100237.81
2023-02-19T11:17:27.842Z,100234.44
2023-02-19T11:19:57.546Z,100253.03
2023-02-19T11:22:31.960Z,100273.88
2023-02-19T11:25:14.926Z,100306.88
2023-02-19T11:28:00.176Z,100311.47
2023-02-19T11:30:40.791Z,100312.31
2023-02-19T11:33:16.561Z,100315.34
2023-02-19T11:35:47.561Z,100310.44
2023-02-19T11:38:16.813Z,100300.78
2023-02-19T11:40:58.665Z,100286.88
2023-02-19T11:43:34.542Z,100284.56
2023-02-19T11:46:34.008Z,100284.72
2023-02-19T11:49:22.721Z,100284.44
2023-02-19T11:51:55.198Z,100290.97
2023-02-19T11:54:48.730Z,100288.78
2023-02-19T11:57:21.544Z,100278.38
2023-02-19T11:59:57.521Z,100270.63
2023-02-19T12:03:01.412Z,100271.72
2023-02-19T12:05:38.165Z,100275.31
2023-02-19T12:08:40.823Z,100292.56
2023-02-19T12:11:29.579Z,100277.22
2023-02-19T12:14:16.780Z,100272.56
2023-02-19T12:17:12.797Z,100274.50
2023-02-19T12:20:16.468Z,100275.25
2023-02-19T12:22:49.008Z,100254.19
2023-02-19T12:25:32.819Z,100272.41
2023-02-19T12:28:19.641Z,100283.38
2023-02-19T12:31:21.669Z,100273.41
2023-02-19T12:34:01.334Z,100270.19
2023-02-19T12:36:54.033Z,100262.91
2023-02-19T12:39:45.918Z,100261.31
2023-02-19T12:42:24.476Z,100271.66
2023-02-19T12:45:04.284Z,100256.75
2023-02-19T12:47:40.114Z,100261.75
2023-02-19T12:50:12.777Z,100254.66
2023-02-19T12:52:42.965Z,100258.19
2023-02-19T12:55:25.585Z,100267.00
2023-02-19T12:57:54.794Z,100260.25
2023-02-19T13:00:45.051Z,100261.59
2023-02-19T13:03:28.722Z,100265.56
2023-02-19T13:06:09.054Z,100269.53
2023-02-19T13:09:07.115Z,100275.97
2023-02-19T13:11:40.088Z,100273.47
2023-02-19T13:14:36.539Z,100276.72
2023-02-19T13:17:31.905Z,100278.47
2023-02-19T13:20:07.964Z,100278.63
2023-02-19T13:23:01.912Z,100272.25
2023-02-19T13:25:44.268Z,100272.44
2023-02-19T13:28:17.366Z,100262.72
2023-02-19T13:31:01.672Z,100252.88
2023-02-19T13:34:13.334Z,100241.38
2023-02-19T13:36:41.745Z,100239.88
2023-02-19T13:39:13.344Z,100250.94
2023-02-19T13:41:43.312Z,100247.72
2023-02-19T13:44:21.857Z,100237.13
2023-02-19T13:46:50.011Z,100239.72
2023-02-19T13:49:31.772Z,100235.91
2023-02-19T13:52:03.753Z,100240.59
2023-02-19T13:54:40.128Z,100227.38
2023-02-19T13:57:24.747Z,100230.75
2023-02-19T13:59:55.989Z,100220.81
2023-02-19T14:02:28.326Z,100204.31
2023-02-19T14:05:00.316Z,100211.00
2023-02-19T14:07:26.846Z,100227.22
2023-02-19T14:09:53.971Z,100225.59
2023-02-19T14:12:30.711Z,100224.50
2023-02-19T14:14:57.855Z,100216.56
2023-02-19T14:17:46.798Z,100227.47
2023-02-19T14:20:16.471Z,100235.41
2023-02-19T14:22:57.898Z,100238.22
2023-02-19T14:25:30.486Z,100233.63
2023-02-19T14:28:14.748Z,100230.16
2023-02-19T14:31:03.489Z,100232.72
2023-02-19T14:33:44.240Z,100227.25
2023-02-19T14:36:40.649Z,100231.88
2023-02-19T14:39:24.408Z,100218.81
2023-02-19T14:41:58.597Z,100206.91
2023-02-19T14:44:30.489Z,100210.13
2023-02-19T14:47:03.447Z,100208.41
2023-02-19T14:50:02.259Z,100203.56
2023-02-19T14:52:41.010Z,100200.09
2023-02-19T14:55:14.928Z,100196.00
2023-02-19T14:57:45.962Z,100195.38
2023-02-19T15:00:23.765Z,100207.91
2023-02-19T15:02:52.374Z,100207.28
2023-02-19T15:05:24.678Z,100208.47
2023-02-19T15:07:54.303Z,100207.00
2023-02-19T15:10:21.837Z,100201.75
2023-02-19T15:12:59.067Z,100216.03
2023-02-19T15:15:32.712Z,100210.81
2023-02-19T15:18:01.496Z,100216.09
2023-02-19T15:20:31.495Z,100221.06
2023-02-19T15:23:00.290Z,100229.25
2023-02-19T15:25:32.998Z,100237.16
2023-02-19T15:28:24.244Z,100236.84
2023-02-19T15:31:07.446Z,100250.34
2023-02-19T15:33:34.664Z,100241.53
2023-02-19T15:36:13.363Z,100231.31
2023-02-19T15:38:40.067Z,100236.44
2023-02-19T15:41:07.225Z,100249.03
2023-02-19T15:43:49.858Z,100260.16
2023-02-19T15:46:22.789Z,100265.09
2023-02-19T15:49:01.491Z,100263.56
2023-02-19T15:51:36.233Z,100270.81
2023-02-19T15:54:17.720Z,100282.78
2023-02-19T15:56:49.462Z,100285.94
2023-02-19T15:59:30.924Z,100295.22
2023-02-19T16:01:58.238Z,100286.53
2023-02-19T16:04:24.907Z,100297.19
2023-02-19T16:06:54.896Z,100300.66
2023-02-19T16:09:27.945Z,100303.94
2023-02-19T16:11:57.974Z,100310.13
2023-02-19T16:14:34.578Z,100317.06
2023-02-19T16:17:03.762Z,100324.34
2023-02-19T16:19:43.245Z,100322.81
2023-02-19T16:22:12.685Z,100329.53
2023-02-19T16:24:54.161Z,100329.09
2023-02-19T16:27:41.922Z,100335.31
2023-02-19T16:30:28.164Z,100342.44
2023-02-19T16:33:32.277Z,100341.56
2023-02-19T16:36:15.503Z,100345.75
2023-02-19T16:38:58.230Z,100342.88
2023-02-19T16:41:25.044Z,100355.97
2023-02-19T16:43:51.616Z,100358.16
2023-02-19T16:46:18.256Z,100354.75
2023-02-19T16:48:44.922Z,100350.84
2023-02-19T16:51:18.161Z,100345.72
2023-02-19T16:53:44.758Z,100351.28
2023-02-19T16:56:18.607Z,100351.38
2023-02-19T16:58:45.210Z,100366.41
2023-02-19T17:01:12.466Z,100362.72
2023-02-19T17:03:39.775Z,100368.75
2023-02-19T17:06:06.596Z,100376.31
2023-02-19T17:08:42.389Z,100374.47
2023-02-19T17:11:14.594Z,100379.84
2023-02-19T17:13:42.269Z,100385.06
2023-02-19T17:16:22.430Z,100394.78
2023-02-19T17:18:49.483Z,100394.03
2023-02-19T17:21:20.131Z,100406.13
2023-02-19T17:23:46.805Z,100411.56
2023-02-19T17:26:19.185Z,100414.88
2023-02-19T17:28:46.049Z,100417.59
2023-02-19T17:31:14.616Z,100421.56
2023-02-19T17:33:42.849Z,100425.75
2023-02-19T17:36:19.115Z,100422.53
2023-02-19T17:38:45.870Z,100420.47
2023-02-19T17:41:12.749Z,100433.28
2023-02-19T17:43:39.564Z,100436.56
2023-02-19T17:46:06.363Z,100437.22
2023-02-19T17:48:32.944Z,100433.03
2023-02-19T17:50:59.499Z,100441.53
2023-02-19T17:53:26.035Z,100437.63
2023-02-19T17:55:52.667Z,100448.41
2023-02-19T17:58:19.248Z,100461.91
2023-02-19T18:00:45.794Z,100463.50
2023-02-19T18:03:12.394Z,100474.84
2023-02-19T18:05:38.950Z,100478.88
2023-02-19T18:08:05.599Z,100489.72
2023-02-19T18:10:32.139Z,100499.78
2023-02-19T18:12:58.694Z,100505.50
2023-02-19T18:15:27.970Z,100532.16
2023-02-19T18:17:56.113Z,100535.50
2023-02-19T18:20:28.042Z,100536.53
2023-02-19T18:22:56.005Z,100548.44
2023-02-19T18:25:23.419Z,100551.13
2023-02-19T18:27:50.944Z,100556.78
2023-02-19T18:30:20.516Z,100565.53
2023-02-19T18:32:50.532Z,100562.63
2023-02-19T18:35:17.838Z,100566.34
2023-02-19T18:37:44.759Z,100562.31
2023-02-19T18:40:12.131Z,100550.84
2023-02-19T18:42:40.038Z,100555.81
2023-02-19T18:45:07.344Z,100545.59
2023-02-19T18:47:34.103Z,100555.06
2023-02-19T18:50:01.313Z,100554.28
2023-02-19T18:52:28.437Z,100564.31
2023-02-19T18:54:57.255Z,100565.53
2023-02-19T18:57:26.283Z,100566.28
2023-02-19T18:59:53.652Z,100571.34
2023-02-19T19:02:20.802Z,100585.63
2023-02-19T19:04:52.652Z,100591.75
2023-02-19T19:07:20.676Z,100590.84
2023-02-19T19:09:47.976Z,100596.22
2023-02-19T19:12:15.312Z,100595.78
2023-02-19T19:14:42.182Z,100596.84
2023-02-19T19:17:08.917Z,100594.91
2023-02-19T19:19:35.577Z,100604.63
2023-02-19T19:22:02.204Z,100609.09
2023-02-19T19:24:28.820Z,100612.38
2023-02-19T19:26:55.562Z,100622.25
2023-02-19T19:29:22.841Z,100628.94
2023-02-19T19:31:49.878Z,100634.78
2023-02-19T19:34:17.303Z,100636.72
2023-02-19T19:36:44.844Z,100647.84
2023-02-19T19:39:11.872Z,100632.81
2023-02-19T19:41:38.442Z,100647.06
2023-02-19T19:44:06.599Z,100637.63
2023-02-19T19:46:33.752Z,100631.03
2023-02-19T19:49:00.494Z,100622.50
2023-02-19T19:51:34.777Z,100624.13
2023-02-19T19:54:04.429Z,100622.38
2023-02-19T19:56:31.676Z,100624.13
2023-02-19T19:58:58.248Z,100626.09
2023-02-19T20:01:24.849Z,100623.66
2023-02-19T20:03:51.402Z,100623.34
2023-02-19T20:06:26.919Z,100621.47
2023-02-19T20:08:54.171Z,100624.16
2023-02-19T20:11:20.897Z,100617.31
2023-02-19T20:13:47.543Z,100607.31
2023-02-19T20:16:14.742Z,100611.88
2023-02-19T20:18:41.668Z,100620.09
2023-02-19T20:21:10.141Z,100620.56
2023-02-19T20:23:39.719Z,100626.00
2023-02-19T20:26:06.730Z,100619.06
2023-02-19T20:28:33.438Z,100632.84
2023-02-19T20:31:00.240Z,100639.38
2023-02-19T20:33:26.874Z,100642.38
2023-02-19T20:35:54.491Z,100633.88
2023-02-19T20:38:21.048Z,100632.59
2023-02-19T20:40:47.673Z,100637.91
2023-02-19T20:43:14.290Z,100633.78
2023-02-19T20:45:43.108Z,100636.22
2023-02-19T20:48:09.744Z,100651.59
2023-02-19T20:50:36.432Z,100666.19
2023-02-19T20:53:03.303Z,100669.78
2023-02-19T20:55:30.027Z,100664.22
2023-02-19T20:57:56.745Z,100656.94
2023-02-19T21:00:23.586Z,100659.16
2023-02-19T21:02:50.488Z,100656.81
2023-02-19T21:05:18.109Z,100663.06
2023-02-19T21:07:44.842Z,100665.19
2023-02-19T21:10:12.020Z,100672.69
2023-02-19T21:12:38.675Z,100679.22
2023-02-19T21:15:05.899Z,100667.34
2023-02-19T21:17:32.437Z,100666.34
2023-02-19T21:19:59.026Z,100672.16
2023-02-19T21:22:25.628Z,100682.25
2023-02-19T21:24:53.163Z,100678.16
2023-02-19T21:27:20.826Z,100684.66
2023-02-19T21:29:47.520Z,100699.44
2023-02-19T21:32:14.333Z,100703.38
2023-02-19T21:34:42.341Z,100708.97
2023-02-19T21:37:08.934Z,100715.22
2023-02-19T21:39:35.557Z,100708.59
2023-02-19T21:42:02.569Z,100715.13
2023-02-19T21:44:29.261Z,100729.16
2023-02-19T21:46:56.087Z,100711.91
2023-02-19T21:49:22.727Z,100717.91
2023-02-19T21:51:50.356Z,100716.31
2023-02-19T21:54:24.673Z,100718.53
2023-02-19T21:56:52.576Z,100743.22
2023-02-19T21:59:20.704Z,100738.06
2023-02-19T22:01:49.189Z,100743.91
2023-02-19T22:04:19.184Z,100743.69
2023-02-19T22:06:45.897Z,100748.78
2023-02-19T22:09:13.836Z,100741.31
2023-02-19T22:11:40.393Z,100750.06
2023-02-19T22:14:07.056Z,100742.22
2023-02-19T22:16:33.712Z,100738.72
2023-02-19T22:19:00.486Z,100754.94
2023-02-19T22:21:32.537Z,100760.56
2023-02-19T22:24:00.860Z,100763.47
2023-02-19T22:26:36.489Z,100770.88
2023-02-19T22:29:07.131Z,100778.09
2023-02-19T22:31:34.667Z,100786.19
2023-02-19T22:34:01.338Z,100787.78
2023-02-19T22:36:33.250Z,100778.34
2023-02-19T22:39:01.036Z,100787.25
2023-02-19T22:41:28.153Z,100792.94
2023-02-19T22:43:55.908Z,100784.81
2023-02-19T22:46:27.801Z,100798.53
2023-02-19T22:48:54.404Z,100797.72
2023-02-19T22:51:23.038Z,100805.63
2023-02-19T22:53:55.296Z,100814.34
2023-02-19T22:56:25.342Z,100827.97
2023-02-19T22:58:52.385Z,100824.28
2023-02-19T23:01:20.228Z,100831.09
2023-02-19T23:03:47.890Z,100847.75
2023-02-19T23:06:15.416Z,100842.72
2023-02-19T23:08:42.970Z,100847.06
2023-02-19T23:11:11.216Z,100853.06
2023-02-19T23:13:38.063Z,100845.34
2023-02-19T23:16:06.084Z,100850.78
2023-02-19T23:18:32.715Z,100856.09
2023-02-19T23:21:00.863Z,100851.53
2023-02-19T23:23:27.385Z,100860.47
2023-02-19T23:25:53.971Z,100860.03
2023-02-19T23:28:20.583Z,100856.81
2023-02-19T23:30:47.286Z,100845.97
2023-02-19T23:33:13.953Z,100869.38
2023-02-19T23:35:40.625Z,100866.09
2023-02-19T23:38:07.194Z,100878.22
2023-02-19T23:40:33.742Z,100876.75
2023-02-19T23:43:00.588Z,100886.63
2023-02-19T23:45:27.303Z,100892.50
2023-02-19T23:47:53.864Z,100890.75
2023-02-19T23:50:20.507Z,100895.44
2023-02-19T23:52:47.161Z,100905.78
2023-02-19T23:55:13.800Z,100897.59
2023-02-19T23:57:40.448Z,100895.78
